Time;durP1;ratioP1;P1;durP2;ratioP2;P2;SDS_P1;SDS_P2;PMS_P1;PMS_P2;Temp;Humidity;BMP_temperature;BMP_pressure;BME280_temperature;BME280_humidity;BME280_pressure;Samples;Min_cycle;Max_cycle;Signal;HPM_P1;HPM_P2
2022/09/03 00:01:26;;;;;;;21.80;10.70;;;17.50;99.90;;;;;;5053722;28;20111;-77
2022/09/03 00:03:57;;;;;;;23.05;11.43;;;17.50;99.90;;;;;;5053143;28;20107;-79
2022/09/03 00:06:29;;;;;;;24.05;11.57;;;17.40;99.90;;;;;;5054434;28;20025;-78
2022/09/03 00:08:58;;;;;;;24.83;11.75;;;17.50;99.90;;;;;;5053390;28;20399;-79
2022/09/03 00:11:50;;;;;;;20.55;11.55;;;17.40;99.90;;;;;;5053262;28;20078;-78
2022/09/03 00:14:27;;;;;;;;;;;17.40;99.90;;;;;;5048620;28;20528;-78
2022/09/03 00:17:03;;;;;;;17.58;11.38;;;17.40;99.90;;;;;;5053327;28;19913;-79
2022/09/03 00:19:35;;;;;;;17.85;11.80;;;17.40;99.90;;;;;;5053590;28;20025;-78
2022/09/03 00:22:22;;;;;;;18.63;11.90;;;17.40;99.90;;;;;;5047960;28;20021;-77
2022/09/03 00:24:49;;;;;;;22.42;12.35;;;17.40;99.90;;;;;;5052977;28;20043;-80
2022/09/03 00:27:22;;;;;;;22.73;12.77;;;17.40;99.90;;;;;;5052839;28;20017;-78
2022/09/03 00:30:00;;;;;;;21.00;12.57;;;17.40;99.90;;;;;;5047413;28;20037;-78
2022/09/03 00:32:33;;;;;;;23.50;12.02;;;17.40;99.90;;;;;;5052883;28;20439;-78
2022/09/03 00:35:05;;;;;;;18.00;12.02;;;17.40;99.90;;;;;;5052889;28;20060;-78
2022/09/03 00:37:31;;;;;;;;;;;17.40;99.90;;;;;;5053204;28;20112;-77
2022/09/03 00:39:57;;;;;;;19.08;11.57;;;17.40;99.90;;;;;;5052768;28;20314;-78
2022/09/03 00:42:42;;;;;;;21.17;12.07;;;17.40;99.90;;;;;;5035012;28;20086;-79
2022/09/03 00:45:23;;;;;;;19.10;11.18;;;17.40;99.90;;;;;;5053276;28;20017;-78
2022/09/03 00:48:22;;;;;;;21.05;11.70;;;17.40;99.90;;;;;;5046307;28;20021;-79
2022/09/03 00:51:09;;;;;;;24.10;13.38;;;17.40;99.90;;;;;;5052490;28;20025;-79
2022/09/03 00:54:12;;;;;;;21.85;13.38;;;17.40;99.90;;;;;;5052402;28;20033;-77
2022/09/03 00:56:56;;;;;;;25.05;14.00;;;17.40;99.90;;;;;;4952137;29;20047;-77
2022/09/03 00:59:40;;;;;;;26.10;14.38;;;17.40;99.90;;;;;;4947661;29;20496;-78
2022/09/03 01:02:14;;;;;;;22.35;13.02;;;17.40;99.90;;;;;;4936193;29;20114;-77
2022/09/03 01:05:00;;;;;;;23.63;14.23;;;17.40;99.90;;;;;;4971590;28;20066;-78
2022/09/03 01:07:39;;;;;;;29.58;14.65;;;17.40;99.90;;;;;;4971918;28;20493;-78
2022/09/03 01:10:15;;;;;;;24.02;13.70;;;17.40;99.90;;;;;;4971823;28;20031;-78
2022/09/03 01:12:50;;;;;;;24.50;14.00;;;17.40;99.90;;;;;;4971785;28;20122;-76
2022/09/03 01:15:53;;;;;;;24.98;13.85;;;17.40;99.90;;;;;;4971266;28;20592;-79
2022/09/03 01:18:43;;;;;;;28.55;13.95;;;17.40;99.90;;;;;;4971856;28;20121;-77
2022/09/03 01:21:50;;;;;;;26.52;14.57;;;17.40;99.90;;;;;;4955677;28;20078;-77
2022/09/03 01:24:30;;;;;;;26.38;14.25;;;17.40;99.90;;;;;;4960890;28;20073;-79
2022/09/03 01:27:31;;;;;;;32.53;15.25;;;17.40;99.90;;;;;;4971562;28;20109;-78
2022/09/03 01:30:09;;;;;;;23.80;13.77;;;17.30;99.90;;;;;;4952187;29;20032;-78
2022/09/03 01:32:53;;;;;;;27.05;15.00;;;17.30;99.90;;;;;;4967371;28;20041;-77
2022/09/03 01:35:31;;;;;;;24.75;14.10;;;17.30;99.90;;;;;;5038127;28;20133;-80
2022/09/03 01:38:32;;;;;;;20.88;13.80;;;17.30;99.90;;;;;;5055986;28;20076;-78
2022/09/03 01:44:42;;;;;;;23.30;14.93;;;17.20;99.90;;;;;;4936618;29;20039;-77
2022/09/03 01:47:11;;;;;;;24.60;15.10;;;17.20;99.90;;;;;;4955549;29;20517;-76
2022/09/03 01:50:02;;;;;;;27.92;15.85;;;17.20;99.90;;;;;;4955637;29;20035;-78
2022/09/03 01:52:39;;;;;;;31.25;15.88;;;17.20;99.90;;;;;;4945054;28;20047;-77
2022/09/03 01:55:12;;;;;;;23.02;15.10;;;17.20;99.90;;;;;;4955274;29;20039;-78
2022/09/03 01:57:47;;;;;;;29.60;16.77;;;17.20;99.90;;;;;;4955375;29;20086;-78
2022/09/03 02:00:19;;;;;;;30.70;16.70;;;17.20;99.90;;;;;;4955295;29;20027;-78
2022/09/03 02:02:49;;;;;;;29.77;18.10;;;17.20;99.90;;;;;;4955361;29;20190;-78
2022/09/03 02:05:17;;;;;;;28.40;17.85;;;17.20;99.90;;;;;;4955112;29;20035;-78
2022/09/03 02:07:45;;;;;;;31.48;17.55;;;17.20;99.90;;;;;;4955063;29;20037;-77
2022/09/03 02:10:17;;;;;;;29.50;17.23;;;17.20;99.90;;;;;;4954794;29;20028;-79
2022/09/03 02:12:45;;;;;;;;;;;17.20;99.90;;;;;;4958469;28;20497;-78
2022/09/03 02:15:15;;;;;;;30.77;18.67;;;17.20;99.90;;;;;;4958015;28;19918;-80
2022/09/03 02:17:44;;;;;;;33.97;18.60;;;17.20;99.90;;;;;;5018021;28;20041;-77
2022/09/03 02:20:15;;;;;;;29.10;17.95;;;17.20;99.90;;;;;;5055154;28;20033;-80
2022/09/03 02:22:42;;;;;;;37.70;19.77;;;17.20;99.90;;;;;;5055507;28;20503;-79
2022/09/03 02:25:09;;;;;;;35.08;19.20;;;17.20;99.90;;;;;;5037699;28;20082;-79
2022/09/03 02:27:39;;;;;;;33.45;18.30;;;17.20;99.90;;;;;;5037077;28;20037;-78
2022/09/03 02:30:06;;;;;;;39.53;19.70;;;17.20;99.90;;;;;;5037489;28;20112;-78
2022/09/03 02:32:32;;;;;;;36.25;19.17;;;17.20;99.90;;;;;;5054489;28;20120;-78
2022/09/03 02:34:58;;;;;;;36.15;19.48;;;17.20;99.90;;;;;;5054754;28;20543;-79
2022/09/03 02:37:24;;;;;;;39.58;21.25;;;17.10;99.90;;;;;;5055034;28;20033;-78
2022/09/03 02:39:51;;;;;;;34.38;20.77;;;17.10;99.90;;;;;;5054685;28;20071;-78
2022/09/03 02:42:18;;;;;;;49.17;20.80;;;17.10;99.90;;;;;;5054477;28;20056;-78
2022/09/03 02:44:56;;;;;;;45.90;21.65;;;17.00;99.90;;;;;;5054379;28;20112;-78
2022/09/03 02:47:24;;;;;;;34.95;20.48;;;17.00;99.90;;;;;;5037390;28;20052;-78
2022/09/03 02:49:50;;;;;;;33.28;20.65;;;17.00;99.90;;;;;;5054806;28;20064;-78
2022/09/03 02:52:16;;;;;;;36.58;22.27;;;17.00;99.90;;;;;;5054636;28;20061;-77
2022/09/03 02:54:44;;;;;;;38.80;21.60;;;17.00;99.90;;;;;;5036854;28;20467;-79
2022/09/03 02:57:12;;;;;;;39.92;21.30;;;17.00;99.90;;;;;;5036549;28;20215;-79
2022/09/03 02:59:40;;;;;;;39.67;23.40;;;17.00;99.90;;;;;;5036831;28;20029;-77
2022/09/03 03:02:07;;;;;;;38.25;23.02;;;17.00;99.90;;;;;;5030537;28;20024;-78
2022/09/03 03:04:32;;;;;;;44.55;23.58;;;17.00;99.90;;;;;;5054782;28;20033;-78
2022/09/03 03:06:58;;;;;;;40.95;23.35;;;17.00;99.90;;;;;;5036475;28;20036;-77
2022/09/03 03:09:24;;;;;;;37.42;24.15;;;17.00;99.90;;;;;;5036542;28;20537;-78
2022/09/03 03:11:51;;;;;;;40.83;24.23;;;17.00;99.90;;;;;;5054240;28;20579;-80
2022/09/03 03:14:17;;;;;;;42.58;23.83;;;17.00;99.90;;;;;;5036495;28;20078;-78
2022/09/03 03:16:43;;;;;;;41.35;25.05;;;17.00;99.90;;;;;;5053537;28;20076;-78
2022/09/03 03:19:09;;;;;;;39.80;25.45;;;17.00;99.90;;;;;;5036267;28;20032;-78
2022/09/03 03:21:35;;;;;;;42.47;24.63;;;17.00;99.90;;;;;;5053811;28;20033;-77
2022/09/03 03:24:02;;;;;;;38.13;23.73;;;17.00;99.90;;;;;;5054152;28;20092;-78
2022/09/03 03:26:28;;;;;;;39.58;24.80;;;17.00;99.90;;;;;;5036234;28;20079;-78
2022/09/03 03:29:00;;;;;;;49.75;25.88;;;17.00;99.90;;;;;;5054632;28;20104;-78
2022/09/03 03:31:26;;;;;;;43.92;25.67;;;16.90;99.90;;;;;;5053619;28;20468;-77
2022/09/03 03:33:54;;;;;;;41.90;24.85;;;16.90;99.90;;;;;;5053799;28;20116;-76
2022/09/03 03:36:21;;;;;;;40.83;25.55;;;16.90;99.90;;;;;;5053873;28;20492;-78
2022/09/03 03:38:47;;;;;;;41.95;24.95;;;16.90;99.90;;;;;;5053711;28;20138;-78
2022/09/03 03:41:20;;;;;;;52.20;26.35;;;16.90;99.90;;;;;;5053799;28;20028;-78
2022/09/03 03:43:47;;;;;;;45.92;26.60;;;16.90;99.90;;;;;;5054055;28;20029;-78
2022/09/03 03:46:13;;;;;;;44.08;26.70;;;16.80;99.90;;;;;;5053839;28;20056;-77
2022/09/03 03:48:40;;;;;;;40.38;26.05;;;16.90;99.90;;;;;;5053399;28;20025;-79
2022/09/03 03:51:08;;;;;;;45.47;26.52;;;16.90;99.90;;;;;;5053476;28;20021;-77
2022/09/03 03:53:35;;;;;;;44.80;26.08;;;16.80;99.90;;;;;;5035525;28;20476;-78
2022/09/03 03:56:04;;;;;;;42.28;25.85;;;16.90;99.90;;;;;;5052183;28;20032;-78
2022/09/03 03:58:31;;;;;;;41.00;26.17;;;16.80;99.90;;;;;;5053650;28;20029;-79
2022/09/03 04:01:08;;;;;;;45.72;27.25;;;16.80;99.90;;;;;;5053414;28;20036;-78
2022/09/03 04:03:35;;;;;;;43.20;26.17;;;16.80;99.90;;;;;;5053204;28;20036;-78
2022/09/03 04:06:03;;;;;;;49.97;27.55;;;16.80;99.90;;;;;;5053394;28;20100;-77
2022/09/03 04:08:29;;;;;;;44.47;26.35;;;16.70;99.90;;;;;;5053373;28;20057;-79
2022/09/03 04:11:00;;;;;;;40.28;26.63;;;16.70;99.90;;;;;;5053194;28;20068;-78
2022/09/03 04:13:45;;;;;;;41.13;26.45;;;16.70;99.90;;;;;;5034936;28;20036;-78
2022/09/03 04:16:20;;;;;;;42.90;27.13;;;16.70;99.90;;;;;;5053258;28;20064;-79
2022/09/03 04:18:48;;;;;;;44.15;28.38;;;16.60;99.90;;;;;;5047389;28;20434;-78
2022/09/03 04:21:19;;;;;;;46.28;27.60;;;16.60;99.90;;;;;;5053639;28;20057;-78
2022/09/03 04:23:47;;;;;;;41.30;27.15;;;16.50;99.90;;;;;;5035278;28;20472;-77
2022/09/03 04:26:21;;;;;;;51.50;28.20;;;16.50;99.90;;;;;;5053044;28;20037;-78
2022/09/03 04:28:47;;;;;;;47.15;29.90;;;16.50;99.90;;;;;;5052842;28;20107;-79
2022/09/03 04:31:16;;;;;;;46.42;29.02;;;16.50;99.90;;;;;;5053298;28;20517;-78
2022/09/03 04:33:42;;;;;;;50.72;28.90;;;16.50;99.90;;;;;;5052860;28;20068;-78
2022/09/03 04:36:08;;;;;;;49.08;29.02;;;16.60;99.90;;;;;;5035244;28;20029;-78
2022/09/03 04:38:36;;;;;;;50.30;29.55;;;16.60;99.90;;;;;;5053048;28;20045;-76
2022/09/03 04:41:03;;;;;;;45.30;27.25;;;16.60;99.90;;;;;;5034953;28;20170;-78
2022/09/03 04:43:29;;;;;;;48.92;25.77;;;16.70;99.90;;;;;;5053134;28;20086;-77
2022/09/03 04:45:59;;;;;;;44.05;25.40;;;16.80;99.90;;;;;;5052779;28;20096;-77
2022/09/03 04:48:27;;;;;;;42.95;26.30;;;16.90;99.90;;;;;;5052551;28;20468;-77
2022/09/03 04:50:53;;;;;;;42.67;24.10;;;16.90;99.90;;;;;;5052906;28;20029;-78
2022/09/03 04:53:20;;;;;;;44.50;23.83;;;17.00;99.90;;;;;;5034827;28;20055;-77
2022/09/03 04:55:46;;;;;;;53.42;24.13;;;17.00;99.90;;;;;;5052764;28;20036;-78
2022/09/03 04:58:12;;;;;;;46.78;24.63;;;17.10;99.90;;;;;;5052459;28;20029;-77
2022/09/03 05:00:38;;;;;;;43.33;23.58;;;17.10;99.90;;;;;;5052828;28;20036;-78
2022/09/03 05:03:04;;;;;;;39.70;24.17;;;17.10;99.90;;;;;;5052546;28;20048;-78
2022/09/03 05:05:32;;;;;;;46.67;23.65;;;17.20;99.90;;;;;;5052604;28;20033;-78
2022/09/03 05:08:01;;;;;;;42.70;24.00;;;17.20;99.90;;;;;;5054304;28;20045;-78
2022/09/03 05:10:27;;;;;;;44.42;22.70;;;17.30;99.90;;;;;;5056389;28;20383;-79
2022/09/03 05:13:04;;;;;;;42.88;23.55;;;17.30;99.90;;;;;;5056635;28;20040;-79
2022/09/03 05:15:31;;;;;;;45.22;23.80;;;17.40;99.90;;;;;;5056426;28;20044;-79
2022/09/03 05:18:02;;;;;;;47.25;26.63;;;17.40;99.90;;;;;;5038977;28;20029;-80
2022/09/03 05:20:29;;;;;;;47.15;24.92;;;17.40;99.90;;;;;;5056256;28;20029;-79
2022/09/03 05:22:56;;;;;;;37.10;20.83;;;17.50;99.90;;;;;;5056432;28;20048;-79
2022/09/03 05:25:22;;;;;;;39.95;20.73;;;17.50;99.90;;;;;;5056771;28;20037;-79
2022/09/03 05:27:48;;;;;;;37.55;20.15;;;17.50;99.90;;;;;;5055961;28;20021;-78
2022/09/03 05:30:14;;;;;;;35.00;19.92;;;17.40;99.90;;;;;;5056269;28;20071;-78
2022/09/03 05:32:41;;;;;;;35.35;19.15;;;17.40;99.90;;;;;;5038428;28;20123;-79
2022/09/03 05:35:09;;;;;;;29.70;17.48;;;17.30;99.90;;;;;;5056630;28;20021;-78
2022/09/03 05:37:35;;;;;;;31.33;17.58;;;17.30;99.90;;;;;;5056062;28;20041;-79
2022/09/03 05:40:02;;;;;;;24.08;15.88;;;17.30;99.90;;;;;;5056204;28;20020;-79
2022/09/03 05:42:30;;;;;;;22.75;16.10;;;17.30;99.90;;;;;;5056130;28;20468;-78
2022/09/03 05:44:56;;;;;;;16.73;9.23;;;17.40;99.90;;;;;;5037860;28;20048;-80
2022/09/03 05:47:22;;;;;;;16.98;9.82;;;17.30;99.90;;;;;;5056422;28;20029;-79
2022/09/03 05:49:47;;;;;;;26.48;11.88;;;17.30;99.90;;;;;;5055878;28;20388;-79
2022/09/03 05:52:13;;;;;;;19.48;12.57;;;17.30;99.90;;;;;;5038312;28;20024;-79
2022/09/03 05:54:39;;;;;;;24.75;13.30;;;17.30;99.90;;;;;;5037704;28;20187;-79
2022/09/03 05:57:04;;;;;;;30.10;15.60;;;17.40;99.90;;;;;;5037776;28;20440;-79
2022/09/03 05:59:30;;;;;;;25.02;15.65;;;17.50;99.90;;;;;;5055508;28;20424;-79
2022/09/03 06:01:56;;;;;;;42.08;18.48;;;17.50;99.90;;;;;;5055653;28;20033;-80
2022/09/03 06:04:22;;;;;;;37.58;17.98;;;17.60;99.90;;;;;;5055811;28;20100;-79
2022/09/03 06:06:48;;;;;;;35.55;17.77;;;17.70;99.90;;;;;;5055649;28;20484;-79
2022/09/03 06:09:19;;;;;;;28.08;16.83;;;17.70;99.90;;;;;;5055743;28;20068;-79
2022/09/03 06:11:46;;;;;;;45.72;17.10;;;17.80;99.90;;;;;;5055332;28;20025;-79
2022/09/03 06:14:13;;;;;;;31.38;17.35;;;17.90;99.90;;;;;;5055686;28;20029;-79
2022/09/03 06:16:45;;;;;;;35.45;16.83;;;18.00;99.90;;;;;;5048941;28;20089;-79
2022/09/03 06:19:12;;;;;;;26.83;16.92;;;18.00;99.90;;;;;;5053274;28;20021;-79
2022/09/03 06:21:41;;;;;;;25.20;16.13;;;18.10;99.90;;;;;;5055232;28;20108;-79
2022/09/03 06:24:09;;;;;;;31.45;16.98;;;18.10;99.90;;;;;;5055625;28;20053;-80
2022/09/03 06:26:35;;;;;;;31.35;16.52;;;18.10;99.90;;;;;;5055273;28;20028;-78
2022/09/03 06:29:01;;;;;;;27.52;15.25;;;18.10;99.90;;;;;;5055694;28;20025;-80
2022/09/03 06:31:27;;;;;;;30.80;16.60;;;18.20;99.90;;;;;;5055007;28;20155;-80
2022/09/03 06:33:53;;;;;;;29.90;15.88;;;18.30;99.90;;;;;;5055198;28;20094;-80
2022/09/03 06:36:21;;;;;;;28.30;15.27;;;18.30;99.90;;;;;;5055190;28;20072;-79
2022/09/03 06:38:50;;;;;;;27.48;15.45;;;18.40;99.90;;;;;;5040609;28;20134;-78
2022/09/03 06:41:23;;;;;;;26.83;15.00;;;18.50;99.90;;;;;;5037649;28;20474;-79
2022/09/03 06:43:56;;;;;;;26.50;14.43;;;18.60;99.90;;;;;;5055614;28;20060;-79
2022/09/03 06:46:22;;;;;;;31.33;15.48;;;18.70;99.90;;;;;;5037232;28;20485;-78
2022/09/03 06:48:52;;;;;;;28.92;15.48;;;18.80;99.90;;;;;;5056515;28;20036;-79
2022/09/03 06:51:23;;;;;;;25.75;16.05;;;19.00;99.90;;;;;;5054709;28;20017;-78
2022/09/03 06:53:53;;;;;;;27.17;14.82;;;19.00;99.90;;;;;;5054651;28;20025;-81
2022/09/03 06:56:25;;;;;;;33.13;15.77;;;19.10;99.90;;;;;;5053325;28;20095;-81
2022/09/03 06:58:51;;;;;;;;;;;19.10;99.90;;;;;;5037899;28;20379;-80
2022/09/03 07:01:19;;;;;;;20.60;14.50;;;19.30;99.90;;;;;;5055418;28;19905;-79
2022/09/03 07:03:48;;;;;;;31.02;14.02;;;19.40;99.90;;;;;;5055565;28;20036;-80
2022/09/03 07:06:18;;;;;;;22.15;11.55;;;19.50;99.90;;;;;;5037390;28;20116;-79
2022/09/03 07:08:45;;;;;;;22.98;11.20;;;19.60;99.90;;;;;;5055000;28;20019;-80
2022/09/03 07:11:18;;;;;;;20.27;10.85;;;19.60;99.90;;;;;;5054556;28;20033;-80
2022/09/03 07:13:46;;;;;;;17.65;10.63;;;19.70;99.90;;;;;;5053643;28;20053;-81
2022/09/03 07:16:24;;;;;;;24.05;11.10;;;19.80;99.90;;;;;;5054640;28;20029;-80
2022/09/03 07:18:51;;;;;;;19.63;10.40;;;19.90;99.90;;;;;;5055047;28;20526;-81
2022/09/03 07:21:19;;;;;;;17.65;11.43;;;20.00;99.90;;;;;;5054722;28;20029;-81
2022/09/03 07:23:45;;;;;;;17.45;10.80;;;20.10;99.90;;;;;;5055221;28;20538;-80
2022/09/03 07:26:20;;;;;;;30.08;13.07;;;20.20;99.90;;;;;;5054683;28;20412;-81
2022/09/03 07:28:47;;;;;;;19.67;10.90;;;;;;;;;;5054704;28;20032;-81
2022/09/03 07:31:20;;;;;;;28.58;16.20;;;20.40;99.90;;;;;;5054166;28;20028;-80
2022/09/03 07:33:46;;;;;;;24.63;13.98;;;20.50;99.90;;;;;;5054678;28;20037;-79
2022/09/03 07:36:15;;;;;;;15.70;9.52;;;20.60;99.90;;;;;;5053886;28;20029;-80
2022/09/03 07:38:43;;;;;;;16.70;10.05;;;;;;;;;;5053001;28;20128;-79
2022/09/03 07:41:09;;;;;;;17.63;11.65;;;20.80;99.90;;;;;;5053615;28;20013;-80
2022/09/03 07:43:38;;;;;;;25.38;13.23;;;20.90;99.90;;;;;;5053942;28;20086;-81
2022/09/03 07:46:06;;;;;;;19.40;12.05;;;21.00;99.90;;;;;;5036536;28;20244;-84
2022/09/03 07:48:32;;;;;;;26.58;13.18;;;21.10;99.90;;;;;;5054451;28;20021;-81
2022/09/03 07:51:02;;;;;;;14.35;8.05;;;21.20;99.90;;;;;;5071895;28;20028;-81
2022/09/03 07:53:29;;;;;;;15.70;10.15;;;21.20;99.90;;;;;;5073942;28;20039;-81
2022/09/03 07:56:06;;;;;;;15.00;9.05;;;21.20;99.90;;;;;;5056112;28;20063;-83
2022/09/03 07:58:33;;;;;;;17.48;11.63;;;21.30;99.90;;;;;;5056234;28;20028;-83
2022/09/03 08:01:08;;;;;;;17.33;9.68;;;21.30;99.90;;;;;;5074040;28;20024;-82
2022/09/03 08:03:37;;;;;;;18.55;9.80;;;21.40;99.90;;;;;;5033721;28;20112;-83
2022/09/03 08:06:05;;;;;;;17.33;9.57;;;21.50;99.90;;;;;;5016565;28;20032;-80
2022/09/03 08:08:35;;;;;;;24.75;15.25;;;21.60;99.90;;;;;;5034421;28;20045;-79
2022/09/03 08:11:09;;;;;;;32.65;22.05;;;21.80;99.90;;;;;;5034043;28;20064;-80
2022/09/03 08:13:39;;;;;;;18.98;9.63;;;21.90;99.90;;;;;;5033884;28;20378;-81
2022/09/03 08:16:06;;;;;;;18.60;11.35;;;22.10;99.90;;;;;;5039981;28;20025;-81
2022/09/03 08:18:37;;;;;;;11.85;7.05;;;22.00;99.90;;;;;;5035645;28;20028;-80
2022/09/03 08:21:08;;;;;;;10.80;6.15;;;22.10;99.90;;;;;;5035383;28;20025;-80
2022/09/03 08:23:39;;;;;;;9.88;6.70;;;22.20;99.90;;;;;;5043924;28;20024;-81
2022/09/03 08:26:06;;;;;;;12.25;7.93;;;22.10;99.90;;;;;;5052676;28;20033;-80
2022/09/03 08:28:33;;;;;;;15.82;8.68;;;21.90;99.90;;;;;;5053608;28;20527;-81
2022/09/03 08:31:05;;;;;;;17.98;8.80;;;21.70;99.90;;;;;;5051898;28;20111;-84
2022/09/03 08:33:37;;;;;;;9.82;6.53;;;21.50;99.90;;;;;;5035242;28;20041;-83
2022/09/03 08:36:08;;;;;;;18.73;7.57;;;21.90;99.90;;;;;;5044580;28;20029;-84
2022/09/03 08:38:35;;;;;;;17.57;7.43;;;22.00;99.90;;;;;;5052718;28;20044;-81
2022/09/03 08:41:13;;;;;;;15.38;7.75;;;22.10;99.90;;;;;;5052832;28;20028;-80
2022/09/03 08:43:54;;;;;;;13.70;8.27;;;22.20;99.90;;;;;;5042561;28;20087;-80
2022/09/03 08:46:25;;;;;;;14.23;7.18;;;22.00;99.90;;;;;;5052210;28;20108;-81
2022/09/03 08:48:52;;;;;;;10.70;6.32;;;;;;;;;;5052739;28;20033;-82
2022/09/03 08:51:26;;;;;;;12.05;8.90;;;;;;;;;;5053118;28;20021;-82
2022/09/03 08:53:56;;;;;;;10.98;7.45;;;;;;;;;;5053368;28;20029;-82
2022/09/03 08:56:32;;;;;;;15.40;7.47;;;;;;;;;;5053344;28;20438;-83
2022/09/03 08:59:00;;;;;;;11.30;6.47;;;22.40;99.90;;;;;;5053626;28;20025;-84
2022/09/03 09:02:03;;;;;;;12.18;8.15;;;22.30;99.90;;;;;;5035644;28;20060;-82
2022/09/03 09:04:33;;;;;;;14.18;8.35;;;22.50;99.90;;;;;;5052448;28;20064;-84
2022/09/03 09:07:08;;;;;;;12.20;7.43;;;22.70;99.90;;;;;;5035380;28;20025;-81
2022/09/03 09:09:58;;;;;;;10.27;7.05;;;22.60;99.90;;;;;;5053383;28;20013;-83
2022/09/03 09:12:37;;;;;;;15.45;8.02;;;22.90;99.90;;;;;;5053427;28;20066;-84
2022/09/03 09:15:29;;;;;;;11.93;7.55;;;23.10;99.90;;;;;;5035301;28;20035;-85
2022/09/03 09:18:10;;;;;;;11.98;8.07;;;23.30;99.20;;;;;;5053322;28;20025;-79
2022/09/03 09:20:41;;;;;;;13.90;8.05;;;23.50;97.30;;;;;;5053432;28;20460;-80
2022/09/03 09:23:16;;;;;;;11.18;5.63;;;23.30;96.30;;;;;;5035429;28;20021;-80
2022/09/03 09:25:48;;;;;;;19.90;15.07;;;23.40;99.90;;;;;;5052958;28;20032;-82
2022/09/03 09:28:19;;;;;;;13.32;7.60;;;;;;;;;;5053357;28;20025;-81
2022/09/03 09:30:47;;;;;;;9.57;8.23;;;;;;;;;;5052844;28;20013;-81
2022/09/03 09:33:14;;;;;;;9.63;8.63;;;;;;;;;;5035438;28;20376;-81
2022/09/03 09:35:41;;;;;;;10.15;9.05;;;;;;;;;;5065996;28;20032;-80
2022/09/03 09:38:08;;;;;;;11.13;5.78;;;;;;;;;;5073046;28;20044;-82
2022/09/03 09:40:37;;;;;;;10.57;6.25;;;;;;;;;;5073185;28;20085;-81
2022/09/03 09:43:14;;;;;;;9.02;6.47;;;;;;;;;;5072993;28;20028;-81
2022/09/03 09:45:45;;;;;;;10.52;5.78;;;;;;;;;;5056262;28;20075;-81
2022/09/03 09:48:14;;;;;;;9.07;5.30;;;;;;;;;;5068649;28;20021;-82
2022/09/03 09:50:40;;;;;;;8.73;6.10;;;23.90;87.20;;;;;;5073076;28;20017;-82
2022/09/03 09:53:13;;;;;;;9.18;6.38;;;23.70;85.90;;;;;;5072952;28;20098;-83
2022/09/03 09:55:53;;;;;;;13.60;5.32;;;;;;;;;;5075331;28;20032;-81
2022/09/03 09:58:21;;;;;;;10.43;6.90;;;;;;;;;;5056962;28;20349;-82
2022/09/03 10:01:02;;;;;;;10.20;6.05;;;;;;;;;;5055298;28;20104;-81
2022/09/03 10:03:29;;;;;;;;;;;;;;;;;;5056704;28;20032;-82
2022/09/03 10:06:52;;;;;;;9.15;6.55;;;;;;;;;;5056129;28;19915;-81
2022/09/03 10:08:48;;;;;;;12.52;6.47;;;;;;;;;;5055443;28;20033;-82
2022/09/03 10:11:14;;;;;;;9.35;6.60;;;;;;;;;;5055363;28;20452;-80
2022/09/03 10:13:43;;;;;;;9.20;6.90;;;;;;;;;;5056785;28;20033;-82
2022/09/03 10:16:19;;;;;;;10.65;6.10;;;;;;;;;;5037620;28;20472;-81
2022/09/03 10:18:48;;;;;;;7.70;6.72;;;;;;;;;;5055087;28;20044;-80
2022/09/03 10:21:20;;;;;;;11.80;6.80;;;;;;;;;;5054972;28;20025;-82
2022/09/03 10:24:03;;;;;;;7.97;6.53;;;;;;;;;;5055121;28;20047;-83
2022/09/03 10:26:29;;;;;;;13.93;8.23;;;;;;;;;;5055197;28;20174;-83
2022/09/03 10:29:01;;;;;;;8.70;6.30;;;24.40;78.10;;;;;;5055310;28;20025;-80
2022/09/03 10:31:59;;;;;;;6.75;4.35;;;24.00;80.20;;;;;;5054084;28;20456;-81
2022/09/03 10:34:37;;;;;;;6.43;4.75;;;23.80;78.00;;;;;;5036725;28;20041;-80
2022/09/03 10:37:22;;;;;;;11.35;5.30;;;23.50;81.90;;;;;;5055327;28;20407;-82
2022/09/03 10:40:00;;;;;;;5.75;5.07;;;23.40;84.30;;;;;;5052231;28;20044;-82
2022/09/03 10:42:36;;;;;;;9.27;5.10;;;23.40;84.20;;;;;;5055704;28;20025;-82
2022/09/03 10:45:27;;;;;;;7.60;4.80;;;23.30;84.80;;;;;;5055646;28;20033;-82
2022/09/03 10:48:12;;;;;;;6.78;3.92;;;23.10;88.70;;;;;;5037665;28;20037;-81
2022/09/03 10:50:51;;;;;;;6.75;3.40;;;23.00;86.50;;;;;;5054825;28;20028;-83
2022/09/03 10:53:48;;;;;;;11.73;5.60;;;23.00;92.70;;;;;;5055349;28;20056;-81
2022/09/03 10:56:16;;;;;;;6.30;4.50;;;22.90;94.00;;;;;;5017675;28;20438;-83
2022/09/03 10:59:02;;;;;;;12.07;4.90;;;22.90;95.40;;;;;;5042218;28;20028;-81
2022/09/03 11:01:51;;;;;;;8.35;6.43;;;23.00;96.20;;;;;;5037659;28;20036;-83
2022/09/03 11:04:43;;;;;;;8.65;6.53;;;23.30;96.60;;;;;;5037740;28;20057;-82
2022/09/03 11:07:13;;;;;;;7.72;6.07;;;23.30;93.70;;;;;;5055394;28;20029;-82
2022/09/03 11:09:45;;;;;;;7.68;3.20;;;23.30;93.60;;;;;;5054832;28;20106;-82
2022/09/03 11:12:21;;;;;;;;;;;23.20;88.20;;;;;;5072297;28;20108;-84
2022/09/03 11:14:57;;;;;;;5.78;3.63;;;23.10;90.00;;;;;;5074720;28;19908;-82
2022/09/03 11:17:32;;;;;;;6.93;3.72;;;23.10;91.90;;;;;;5074698;28;20025;-82
2022/09/03 11:20:19;;;;;;;9.88;3.72;;;23.10;93.00;;;;;;5057092;28;20021;-81
2022/09/03 11:22:47;;;;;;;6.68;3.60;;;23.00;95.40;;;;;;5074035;28;20025;-83
2022/09/03 11:25:16;;;;;;;9.13;5.35;;;22.90;92.40;;;;;;5073761;28;20036;-84
2022/09/03 11:27:42;;;;;;;9.15;3.17;;;22.80;93.60;;;;;;5055776;28;20028;-84
2022/09/03 11:30:13;;;;;;;7.57;3.53;;;22.80;96.20;;;;;;5074578;28;20567;-82
2022/09/03 11:33:14;;;;;;;6.68;3.40;;;22.80;92.20;;;;;;5075115;28;20048;-82
2022/09/03 11:35:41;;;;;;;9.85;3.88;;;22.80;93.60;;;;;;4957365;28;20035;-84
2022/09/03 11:38:17;;;;;;;8.15;3.72;;;22.80;94.30;;;;;;4956961;28;20043;-81
2022/09/03 11:41:11;;;;;;;14.02;3.58;;;22.80;93.10;;;;;;4973249;28;20050;-81
2022/09/03 11:43:38;;;;;;;6.20;3.65;;;22.90;96.00;;;;;;4972803;28;20038;-80
2022/09/03 11:46:25;;;;;;;16.10;4.55;;;22.90;95.20;;;;;;4973134;28;20023;-81
2022/09/03 11:48:54;;;;;;;5.43;3.63;;;22.90;92.20;;;;;;4955457;28;20070;-81
2022/09/03 11:51:28;;;;;;;5.82;2.95;;;23.00;94.80;;;;;;4937868;29;20078;-81
2022/09/03 11:54:22;;;;;;;6.07;3.30;;;23.00;94.40;;;;;;4937885;29;20038;-81
2022/09/03 11:56:49;;;;;;;9.75;5.88;;;23.60;99.00;;;;;;4948035;29;20035;-81
2022/09/03 11:59:25;;;;;;;6.80;6.00;;;23.90;99.20;;;;;;4953937;29;20139;-80
2022/09/03 12:01:56;;;;;;;8.18;6.57;;;;;;;;;;4937824;29;20522;-81
2022/09/03 12:04:26;;;;;;;9.82;6.35;;;;;;;;;;4954023;29;20387;-82
2022/09/03 12:07:11;;;;;;;12.50;6.95;;;;;;;;;;4937745;29;20020;-83
2022/09/03 12:09:44;;;;;;;10.52;6.18;;;;;;;;;;5003588;28;20033;-82
2022/09/03 12:12:12;;;;;;;8.60;6.45;;;;;;;;;;5036050;28;20021;-82
2022/09/03 12:14:57;;;;;;;6.45;5.55;;;;;;;;;;5036104;28;20539;-80
2022/09/03 12:17:38;;;;;;;8.52;7.28;;;;;;;;;;5035523;28;20427;-80
2022/09/03 12:20:11;;;;;;;8.60;6.95;;;;;;;;;;5053866;28;20483;-82
2022/09/03 12:22:37;;;;;;;9.00;6.68;;;;;;;;;;5036017;28;20032;-81
2022/09/03 12:25:11;;;;;;;9.15;7.82;;;;;;;;;;5053718;28;20125;-81
2022/09/03 12:27:38;;;;;;;9.75;7.10;;;;;;;;;;5053430;28;20025;-80
2022/09/03 12:30:04;;;;;;;6.38;5.78;;;;;;;;;;5064020;28;20028;-79
2022/09/03 12:32:36;;;;;;;7.20;6.40;;;;;;;;;;5062826;28;20029;-84
2022/09/03 12:35:16;;;;;;;11.18;7.93;;;;;;;;;;5060705;28;20075;-82
2022/09/03 12:37:46;;;;;;;16.65;8.93;;;;;;;;;;5060721;28;20111;-80
2022/09/03 12:40:25;;;;;;;26.38;10.63;;;24.80;71.80;;;;;;5061698;28;20036;-81
2022/09/03 12:42:52;;;;;;;16.80;9.23;;;24.60;71.30;;;;;;5066060;28;20108;-82
2022/09/03 12:45:23;;;;;;;6.93;5.38;;;24.40;73.40;;;;;;5053220;28;20369;-83
2022/09/03 12:47:50;;;;;;;13.93;8.40;;;24.30;69.70;;;;;;5053348;28;20472;-80
2022/09/03 12:50:22;;;;;;;11.65;6.82;;;24.20;76.70;;;;;;5053203;28;20021;-81
2022/09/03 12:52:53;;;;;;;10.65;6.85;;;24.10;75.80;;;;;;5053599;28;20025;-81
2022/09/03 12:55:44;;;;;;;8.03;6.27;;;24.10;72.00;;;;;;5035511;28;20037;-82
2022/09/03 12:58:12;;;;;;;6.35;5.05;;;24.00;75.90;;;;;;5053779;28;20659;-80
2022/09/03 13:00:49;;;;;;;8.35;5.05;;;24.00;78.00;;;;;;5035612;28;20379;-82
2022/09/03 13:03:26;;;;;;;10.82;4.63;;;24.00;77.40;;;;;;5053431;28;20029;-82
2022/09/03 13:06:00;;;;;;;7.65;4.80;;;24.00;75.40;;;;;;5035263;28;20029;-82
2022/09/03 13:08:33;;;;;;;12.98;9.02;;;24.00;79.80;;;;;;5052017;28;20463;-81
2022/09/03 13:11:03;;;;;;;51.78;21.00;;;;;;;;;;5035690;28;20029;-81
2022/09/03 13:13:31;;;;;;;10.82;7.40;;;;;;;;;;5056046;28;20018;-82
2022/09/03 13:16:09;;;;;;;10.05;7.18;;;;;;;;;;5048364;28;20079;-83
2022/09/03 13:18:54;;;;;;;9.88;6.38;;;;;;;;;;5052823;28;20021;-81
2022/09/03 13:21:36;;;;;;;10.68;5.47;;;;;;;;;;5053415;28;20029;-80